sensor_id;sensor_type;location;lat;lon;timestamp;temperature;humidity
20139;DHT22;10230;51.502;10.800;2022-09-02T07:35:30;18.00;99.90
20139;DHT22;10230;51.502;10.800;2022-09-02T07:37:56;18.10;99.90
20139;DHT22;10230;51.502;10.800;2022-09-02T07:40:22;18.30;99.90
20139;DHT22;10230;51.502;10.800;2022-09-02T07:42:48;18.50;99.90
20139;DHT22;10230;51.502;10.800;2022-09-02T07:45:14;18.70;99.90
20139;DHT22;10230;51.502;10.800;2022-09-02T07:47:40;18.90;99.90
20139;DHT22;10230;51.502;10.800;2022-09-02T07:50:06;19.10;99.90
20139;DHT22;10230;51.502;10.800;2022-09-02T07:52:32;19.30;99.90
20139;DHT22;10230;51.502;10.800;2022-09-02T07:54:58;19.40;99.90
20139;DHT22;10230;51.502;10.800;2022-09-02T07:59:50;19.90;99.90
20139;DHT22;10230;51.502;10.800;2022-09-02T08:02:15;20.60;99.90
20139;DHT22;10230;51.502;10.800;2022-09-02T08:04:43;20.90;99.90
20139;DHT22;10230;51.502;10.800;2022-09-02T08:07:09;21.70;99.90
20139;DHT22;10230;51.502;10.800;2022-09-02T08:14:28;26.20;95.60
20139;DHT22;10230;51.502;10.800;2022-09-02T08:24:13;33.30;62.90
20139;DHT22;10230;51.502;10.800;2022-09-02T08:26:39;33.40;60.60
20139;DHT22;10230;51.502;10.800;2022-09-02T08:29:06;34.90;56.00
20139;DHT22;10230;51.502;10.800;2022-09-02T08:53:59;40.80;36.30
20139;DHT22;10230;51.502;10.800;2022-09-02T08:56:28;41.20;36.60
20139;DHT22;10230;51.502;10.800;2022-09-02T08:58:54;41.30;35.60
20139;DHT22;10230;51.502;10.800;2022-09-02T09:16:47;41.90;32.30
20139;DHT22;10230;51.502;10.800;2022-09-02T09:19:26;41.10;32.80
20139;DHT22;10230;51.502;10.800;2022-09-02T09:21:53;40.40;33.20
20139;DHT22;10230;51.502;10.800;2022-09-02T09:24:23;39.50;34.10
20139;DHT22;10230;51.502;10.800;2022-09-02T09:26:51;39.50;34.60
20139;DHT22;10230;51.502;10.800;2022-09-02T09:29:17;40.00;33.90
20139;DHT22;10230;51.502;10.800;2022-09-02T09:31:49;40.20;33.90
20139;DHT22;10230;51.502;10.800;2022-09-02T09:34:17;40.80;33.50
20139;DHT22;10230;51.502;10.800;2022-09-02T09:36:44;40.80;33.10
20139;DHT22;10230;51.502;10.800;2022-09-02T09:41:49;41.90;32.60
20139;DHT22;10230;51.502;10.800;2022-09-02T09:46:41;44.10;30.00
20139;DHT22;10230;51.502;10.800;2022-09-02T09:49:06;44.20;30.00
20139;DHT22;10230;51.502;10.800;2022-09-02T09:51:33;44.50;30.00
20139;DHT22;10230;51.502;10.800;2022-09-02T09:54:14;44.60;29.70
20139;DHT22;10230;51.502;10.800;2022-09-02T09:56:40;44.90;29.50
20139;DHT22;10230;51.502;10.800;2022-09-02T09:59:06;44.80;29.40
20139;DHT22;10230;51.502;10.800;2022-09-02T10:01:32;44.40;29.40
20139;DHT22;10230;51.502;10.800;2022-09-02T10:08:58;44.30;29.30
20139;DHT22;10230;51.502;10.800;2022-09-02T10:11:27;44.80;29.30
20139;DHT22;10230;51.502;10.800;2022-09-02T10:53:00;44.40;73.20
20139;DHT22;10230;51.502;10.800;2022-09-02T11:00:54;44.30;27.80
20139;DHT22;10230;51.502;10.800;2022-09-02T11:03:35;44.60;28.00
20139;DHT22;10230;51.502;10.800;2022-09-02T11:06:13;45.70;28.70
20139;DHT22;10230;51.502;10.800;2022-09-02T11:18:32;43.80;72.10
20139;DHT22;10230;51.502;10.800;2022-09-02T11:51:02;39.80;30.00
20139;DHT22;10230;51.502;10.800;2022-09-02T11:53:35;39.80;30.00
20139;DHT22;10230;51.502;10.800;2022-09-02T12:01:04;39.00;30.30
20139;DHT22;10230;51.502;10.800;2022-09-02T12:03:30;39.20;30.00
20139;DHT22;10230;51.502;10.800;2022-09-02T12:11:02;37.30;30.70
20139;DHT22;10230;51.502;10.800;2022-09-02T15:16:54;23.50;95.00
20139;DHT22;10230;51.502;10.800;2022-09-02T15:19:20;23.50;54.30
20139;DHT22;10230;51.502;10.800;2022-09-02T15:21:45;23.40;50.80
20139;DHT22;10230;51.502;10.800;2022-09-02T15:24:12;23.40;51.40
20139;DHT22;10230;51.502;10.800;2022-09-02T15:26:37;23.40;52.90
20139;DHT22;10230;51.502;10.800;2022-09-02T15:29:03;23.40;51.30
20139;DHT22;10230;51.502;10.800;2022-09-02T15:31:29;23.30;50.60
20139;DHT22;10230;51.502;10.800;2022-09-02T15:33:55;23.20;50.50
20139;DHT22;10230;51.502;10.800;2022-09-02T15:36:21;23.20;51.60
20139;DHT22;10230;51.502;10.800;2022-09-02T15:38:49;23.10;56.80
20139;DHT22;10230;51.502;10.800;2022-09-02T15:41:36;23.20;55.50
20139;DHT22;10230;51.502;10.800;2022-09-02T15:46:46;22.80;89.30
20139;DHT22;10230;51.502;10.800;2022-09-02T15:51:43;22.70;92.30
20139;DHT22;10230;51.502;10.800;2022-09-02T15:56:37;22.60;59.10
20139;DHT22;10230;51.502;10.800;2022-09-02T15:59:10;22.60;62.20
20139;DHT22;10230;51.502;10.800;2022-09-02T16:04:10;22.50;58.60
20139;DHT22;10230;51.502;10.800;2022-09-02T16:09:05;22.40;81.20
20139;DHT22;10230;51.502;10.800;2022-09-02T16:11:31;22.10;64.60
20139;DHT22;10230;51.502;10.800;2022-09-02T16:21:37;21.90;60.60
20139;DHT22;10230;51.502;10.800;2022-09-02T16:24:04;21.80;66.60
20139;DHT22;10230;51.502;10.800;2022-09-02T16:26:32;21.70;81.70
20139;DHT22;10230;51.502;10.800;2022-09-02T16:29:04;21.50;88.60
20139;DHT22;10230;51.502;10.800;2022-09-02T16:36:25;21.60;54.80
20139;DHT22;10230;51.502;10.800;2022-09-02T16:38:52;21.50;55.50
20139;DHT22;10230;51.502;10.800;2022-09-02T16:43:52;21.50;55.70
20139;DHT22;10230;51.502;10.800;2022-09-02T16:46:18;21.40;55.90
20139;DHT22;10230;51.502;10.800;2022-09-02T16:48:44;21.40;55.70
20139;DHT22;10230;51.502;10.800;2022-09-02T16:51:10;21.40;55.80
20139;DHT22;10230;51.502;10.800;2022-09-02T16:53:36;21.40;55.70
20139;DHT22;10230;51.502;10.800;2022-09-02T16:56:02;21.50;55.60
20139;DHT22;10230;51.502;10.800;2022-09-02T16:58:29;21.50;55.70
20139;DHT22;10230;51.502;10.800;2022-09-02T17:00:55;21.50;55.80
20139;DHT22;10230;51.502;10.800;2022-09-02T17:03:21;21.50;55.90
20139;DHT22;10230;51.502;10.800;2022-09-02T17:05:47;21.40;55.90
20139;DHT22;10230;51.502;10.800;2022-09-02T17:08:14;21.30;56.20
20139;DHT22;10230;51.502;10.800;2022-09-02T17:10:40;21.20;56.40
20139;DHT22;10230;51.502;10.800;2022-09-02T17:17:58;20.90;56.90
20139;DHT22;10230;51.502;10.800;2022-09-02T17:25:17;20.50;63.90
20139;DHT22;10230;51.502;10.800;2022-09-02T17:30:10;20.40;58.30
20139;DHT22;10230;51.502;10.800;2022-09-02T17:32:37;20.40;59.00
20139;DHT22;10230;51.502;10.800;2022-09-02T17:35:03;19.70;59.70
20139;DHT22;10230;51.502;10.800;2022-09-02T17:37:30;20.50;60.30
20139;DHT22;10230;51.502;10.800;2022-09-02T17:39:57;20.20;59.60
20139;DHT22;10230;51.502;10.800;2022-09-02T17:42:22;20.10;60.00
20139;DHT22;10230;51.502;10.800;2022-09-02T17:44:48;20.00;60.30
20139;DHT22;10230;51.502;10.800;2022-09-02T18:15:06;18.80;99.90
20139;DHT22;10230;51.502;10.800;2022-09-02T18:17:37;19.00;89.70
20139;DHT22;10230;51.502;10.800;2022-09-02T20:51:37;17.90;99.90
20139;DHT22;10230;51.502;10.800;2022-09-02T21:04:46;17.60;80.10
20139;DHT22;10230;51.502;10.800;2022-09-02T21:15:08;17.40;83.80
20139;DHT22;10230;51.502;10.800;2022-09-02T21:17:49;17.40;84.20
20139;DHT22;10230;51.502;10.800;2022-09-02T21:20:39;17.40;84.90
20139;DHT22;10230;51.502;10.800;2022-09-02T21:23:19;17.30;85.80
20139;DHT22;10230;51.502;10.800;2022-09-02T21:25:56;17.30;86.60
20139;DHT22;10230;51.502;10.800;2022-09-02T21:28:49;17.20;87.50
20139;DHT22;10230;51.502;10.800;2022-09-02T21:31:29;17.20;88.60
20139;DHT22;10230;51.502;10.800;2022-09-02T21:34:01;17.20;90.00
20139;DHT22;10230;51.502;10.800;2022-09-02T21:36:30;17.20;91.40
20139;DHT22;10230;51.502;10.800;2022-09-02T21:39:05;17.10;96.00
20139;DHT22;10230;51.502;10.800;2022-09-02T21:41:39;17.10;97.40
20139;DHT22;10230;51.502;10.800;2022-09-02T22:01:10;17.10;98.90
20139;DHT22;10230;51.502;10.800;2022-09-02T22:03:49;17.00;99.10
20139;DHT22;10230;51.502;10.800;2022-09-02T22:09:01;17.00;99.70
20139;DHT22;10230;51.502;10.800;2022-09-02T22:11:33;16.90;99.90
20139;DHT22;10230;51.502;10.800;2022-09-02T22:14:11;16.90;99.90
20139;DHT22;10230;51.502;10.800;2022-09-02T22:19:11;16.80;99.90
20139;DHT22;10230;51.502;10.800;2022-09-02T22:22:03;16.80;99.90
20139;DHT22;10230;51.502;10.800;2022-09-02T22:24:30;16.80;99.90
20139;DHT22;10230;51.502;10.800;2022-09-02T22:29:55;16.70;99.90
20139;DHT22;10230;51.502;10.800;2022-09-02T22:32:30;16.70;99.90
20139;DHT22;10230;51.502;10.800;2022-09-02T22:40:45;16.60;99.90
20139;DHT22;10230;51.502;10.800;2022-09-02T22:43:16;16.60;99.90
20139;DHT22;10230;51.502;10.800;2022-09-02T22:48:48;16.40;99.90
20139;DHT22;10230;51.502;10.800;2022-09-02T22:51:49;16.40;99.90
20139;DHT22;10230;51.502;10.800;2022-09-02T22:54:35;16.40;99.90
20139;DHT22;10230;51.502;10.800;2022-09-02T22:57:38;16.40;99.90
20139;DHT22;10230;51.502;10.800;2022-09-02T23:00:16;16.30;99.90
20139;DHT22;10230;51.502;10.800;2022-09-02T23:05:46;16.30;99.90
20139;DHT22;10230;51.502;10.800;2022-09-02T23:08:19;16.30;99.90
20139;DHT22;10230;51.502;10.800;2022-09-02T23:13:45;16.20;99.90
20139;DHT22;10230;51.502;10.800;2022-09-02T23:27:30;15.90;99.90
20139;DHT22;10230;51.502;10.800;2022-09-02T23:30:03;16.00;99.90
20139;DHT22;10230;51.502;10.800;2022-09-02T23:41:07;15.90;99.90
20139;DHT22;10230;51.502;10.800;2022-09-02T23:43:33;15.80;99.90
